createdAt,value
2024-02-14T00:01:28.160Z,6.50
2024-02-14T00:03:58.428Z,6.50
2024-02-14T00:06:27.300Z,6.40
2024-02-14T00:08:55.587Z,6.40
2024-02-14T00:11:25.162Z,6.40
2024-02-14T00:13:57.675Z,6.40
2024-02-14T00:16:28.593Z,6.40
2024-02-14T00:18:57.203Z,6.40
2024-02-14T00:21:25.924Z,6.40
2024-02-14T00:23:54.172Z,6.40
2024-02-14T00:29:18.034Z,6.50
2024-02-14T00:31:53.690Z,6.40
2024-02-14T00:34:22.764Z,6.40
2024-02-14T00:36:52.854Z,6.40
2024-02-14T00:39:21.090Z,6.40
2024-02-14T00:41:50.427Z,6.40
2024-02-14T00:44:20.520Z,6.40
2024-02-14T00:46:49.372Z,6.40
2024-02-14T00:49:19.409Z,6.40
2024-02-14T00:51:47.775Z,6.40
2024-02-14T00:54:18.218Z,6.40
2024-02-14T00:56:47.648Z,6.40
2024-02-14T00:59:15.910Z,6.40
2024-02-14T01:01:44.162Z,6.40
2024-02-14T01:04:12.691Z,6.40
2024-02-14T01:06:42.403Z,6.30
2024-02-14T01:09:14.639Z,6.30
2024-02-14T01:11:43.029Z,6.30
2024-02-14T01:14:11.239Z,6.20
2024-02-14T01:16:45.113Z,6.20
2024-02-14T01:19:16.595Z,6.20
2024-02-14T01:21:49.473Z,6.10
2024-02-14T01:24:22.289Z,6.10
2024-02-14T01:26:51.367Z,6.10
2024-02-14T01:29:20.576Z,6.00
2024-02-14T01:31:49.351Z,6.00
2024-02-14T01:34:17.674Z,6.00
2024-02-14T01:36:50.424Z,6.00
2024-02-14T01:39:20.606Z,6.00
2024-02-14T01:41:49.934Z,5.90
2024-02-14T01:44:18.865Z,5.90
2024-02-14T01:46:47.270Z,5.90
2024-02-14T01:49:20.308Z,5.90
2024-02-14T01:51:52.644Z,5.80
2024-02-14T01:54:22.544Z,5.80
2024-02-14T01:56:51.015Z,5.70
2024-02-14T01:59:20.118Z,5.70
2024-02-14T02:01:54.736Z,5.70
2024-02-14T02:04:25.842Z,5.60
2024-02-14T02:09:51.743Z,5.50
2024-02-14T02:12:21.729Z,5.50
2024-02-14T02:14:51.714Z,5.40
2024-02-14T02:17:20.366Z,5.40
2024-02-14T02:22:50.432Z,5.30
2024-02-14T02:25:24.818Z,5.30
2024-02-14T02:27:53.122Z,5.30
2024-02-14T02:30:21.606Z,5.30
2024-02-14T02:32:52.782Z,5.30
2024-02-14T02:35:22.155Z,5.30
2024-02-14T02:37:52.019Z,5.30
2024-02-14T02:40:22.633Z,5.30
2024-02-14T02:42:51.493Z,5.30
2024-02-14T02:45:20.642Z,5.20
2024-02-14T02:47:49.323Z,5.20
2024-02-14T02:50:18.662Z,5.20
2024-02-14T02:52:47.205Z,5.20
2024-02-14T02:55:20.553Z,5.20
2024-02-14T02:57:51.489Z,5.20
2024-02-14T03:00:22.867Z,5.10
2024-02-14T03:02:51.312Z,5.10
2024-02-14T03:05:24.615Z,5.10
2024-02-14T03:07:54.650Z,5.10
2024-02-14T03:10:24.422Z,5.10
2024-02-14T03:12:56.523Z,5.00
2024-02-14T03:15:27.613Z,5.00
2024-02-14T03:17:55.913Z,4.90
2024-02-14T03:20:24.814Z,4.90
2024-02-14T03:22:54.979Z,5.00
2024-02-14T03:25:28.545Z,4.80
2024-02-14T03:27:59.837Z,4.80
2024-02-14T03:30:32.392Z,4.80
2024-02-14T03:33:03.511Z,4.70
2024-02-14T03:35:31.842Z,4.70
2024-02-14T03:38:04.663Z,4.70
2024-02-14T03:40:34.506Z,4.70
2024-02-14T03:43:03.644Z,4.70
2024-02-14T03:45:32.594Z,4.60
2024-02-14T03:48:01.060Z,4.60
2024-02-14T03:50:30.656Z,4.60
2024-02-14T03:52:59.369Z,4.60
2024-02-14T03:55:27.717Z,4.60
2024-02-14T03:57:57.291Z,4.60
2024-02-14T04:00:25.762Z,4.60
2024-02-14T04:03:00.360Z,4.60
2024-02-14T04:05:29.556Z,4.60
2024-02-14T04:08:01.052Z,4.60
2024-02-14T04:10:29.481Z,4.60
2024-02-14T04:12:59.560Z,4.60
2024-02-14T04:15:30.432Z,4.60
2024-02-14T04:18:00.388Z,4.60
2024-02-14T04:20:30.814Z,4.70
2024-02-14T04:22:59.932Z,4.60
2024-02-14T04:25:28.538Z,4.80
2024-02-14T04:28:01.278Z,4.60
2024-02-14T04:30:29.517Z,4.60
2024-02-14T04:32:57.924Z,4.60
2024-02-14T04:35:26.755Z,4.60
2024-02-14T04:37:55.046Z,4.70
2024-02-14T04:40:27.114Z,4.60
2024-02-14T04:42:55.408Z,4.60
2024-02-14T04:45:27.795Z,4.60
2024-02-14T04:47:56.256Z,4.60
2024-02-14T04:50:24.620Z,4.60
2024-02-14T04:52:55.012Z,4.60
2024-02-14T04:55:24.705Z,4.70
2024-02-14T04:57:52.958Z,4.70
2024-02-14T05:00:22.641Z,4.70
2024-02-14T05:02:52.433Z,4.60
2024-02-14T05:05:23.242Z,4.60
2024-02-14T05:07:51.461Z,4.70
2024-02-14T05:10:21.608Z,4.70
2024-02-14T05:12:49.850Z,4.70
2024-02-14T05:15:18.653Z,4.70
2024-02-14T05:17:47.039Z,4.70
2024-02-14T05:20:18.101Z,4.60
2024-02-14T05:22:50.339Z,4.60
2024-02-14T05:25:19.729Z,4.60
2024-02-14T05:27:49.610Z,4.70
2024-02-14T05:30:21.233Z,4.60
2024-02-14T05:32:50.773Z,4.60
2024-02-14T05:35:21.188Z,4.60
2024-02-14T05:37:51.102Z,4.60
2024-02-14T05:40:20.162Z,4.60
2024-02-14T05:42:48.622Z,4.60
2024-02-14T05:45:17.600Z,4.60
2024-02-14T05:47:45.962Z,4.60
2024-02-14T05:50:15.593Z,4.60
2024-02-14T05:52:45.268Z,4.60
2024-02-14T05:55:13.529Z,4.60
2024-02-14T05:57:42.720Z,4.60
2024-02-14T06:00:14.213Z,4.60
2024-02-14T06:02:44.152Z,4.60
2024-02-14T06:05:12.652Z,4.60
2024-02-14T06:07:41.573Z,4.60
2024-02-14T06:10:12.725Z,4.70
2024-02-14T06:12:41.923Z,4.60
2024-02-14T06:15:12.778Z,4.70
2024-02-14T06:17:41.117Z,4.70
2024-02-14T06:20:10.850Z,4.70
2024-02-14T06:22:44.786Z,4.70
2024-02-14T06:25:19.543Z,4.80
2024-02-14T06:27:48.692Z,4.80
2024-02-14T06:30:18.762Z,4.80
2024-02-14T06:32:49.946Z,4.80
2024-02-14T06:35:20.889Z,4.90
2024-02-14T06:37:59.225Z,4.80
2024-02-14T06:40:33.274Z,4.90
2024-02-14T06:43:02.740Z,4.90
2024-02-14T06:45:31.439Z,4.90
2024-02-14T06:47:59.922Z,5.00
2024-02-14T06:50:31.033Z,5.00
2024-02-14T06:53:02.268Z,5.00
2024-02-14T06:55:35.679Z,5.00
2024-02-14T06:58:08.368Z,5.00
2024-02-14T07:00:36.669Z,5.10
2024-02-14T07:03:05.335Z,5.10
2024-02-14T07:05:37.266Z,5.10
2024-02-14T07:08:06.321Z,5.10
2024-02-14T07:10:36.772Z,5.20
2024-02-14T07:13:05.340Z,5.20
2024-02-14T07:15:33.568Z,5.20
2024-02-14T07:18:01.860Z,5.30
2024-02-14T07:20:33.139Z,5.30
2024-02-14T07:23:01.501Z,5.30
2024-02-14T07:25:33.377Z,5.30
2024-02-14T07:28:03.380Z,5.40
2024-02-14T07:30:31.611Z,5.40
2024-02-14T07:33:02.527Z,5.50
2024-02-14T07:35:35.567Z,5.50
2024-02-14T07:38:04.521Z,5.60
2024-02-14T07:40:33.051Z,5.70
2024-02-14T07:43:07.409Z,5.70
2024-02-14T07:45:35.782Z,5.80
2024-02-14T07:48:04.863Z,5.80
2024-02-14T07:50:33.565Z,5.90
2024-02-14T07:53:02.434Z,5.90
2024-02-14T07:55:30.708Z,6.00
2024-02-14T07:58:00.896Z,6.10
2024-02-14T08:00:34.405Z,6.10
2024-02-14T08:03:05.032Z,6.20
2024-02-14T08:05:33.492Z,6.20
2024-02-14T08:08:01.946Z,6.20
2024-02-14T08:10:33.576Z,6.30
2024-02-14T08:13:01.992Z,6.40
2024-02-14T08:15:31.760Z,6.40
2024-02-14T08:18:03.643Z,6.50
2024-02-14T08:20:37.842Z,6.50
2024-02-14T08:23:06.470Z,6.60
2024-02-14T08:25:34.669Z,6.60
2024-02-14T08:28:04.033Z,6.70
2024-02-14T08:30:33.725Z,6.80
2024-02-14T08:33:06.353Z,6.80
2024-02-14T08:35:39.037Z,6.90
2024-02-14T08:38:16.452Z,7.00
2024-02-14T08:40:44.701Z,7.10
2024-02-14T08:43:13.233Z,7.10
2024-02-14T08:45:42.990Z,7.20
2024-02-14T08:48:11.273Z,7.20
2024-02-14T08:50:39.863Z,7.30
2024-02-14T08:53:08.228Z,7.40
2024-02-14T08:55:37.692Z,7.40
2024-02-14T08:58:06.454Z,7.40
2024-02-14T09:00:37.012Z,7.40
2024-02-14T09:03:09.889Z,7.40
2024-02-14T09:05:41.674Z,7.50
2024-02-14T09:08:09.971Z,7.60
2024-02-14T09:10:38.532Z,7.50
2024-02-14T09:13:09.212Z,7.60
2024-02-14T09:15:37.943Z,7.70
2024-02-14T09:18:06.581Z,7.70
2024-02-14T09:20:36.311Z,7.80
2024-02-14T09:23:04.718Z,7.80
2024-02-14T09:25:32.961Z,7.90
2024-02-14T09:28:04.137Z,7.90
2024-02-14T09:30:38.703Z,7.90
2024-02-14T09:33:07.982Z,8.00
2024-02-14T09:35:39.432Z,8.10
2024-02-14T09:38:08.772Z,8.10
2024-02-14T09:40:39.656Z,8.20
2024-02-14T09:43:16.923Z,8.20
2024-02-14T09:45:46.226Z,8.30
2024-02-14T09:51:39.381Z,8.30
2024-02-14T09:54:13.640Z,8.40
2024-02-14T09:56:43.886Z,8.40
2024-02-14T09:59:21.565Z,8.50
2024-02-14T10:01:53.803Z,8.40
2024-02-14T10:04:29.450Z,8.50
2024-02-14T10:06:59.789Z,8.50
2024-02-14T10:09:31.431Z,8.50
2024-02-14T10:11:59.771Z,8.60
2024-02-14T10:14:28.864Z,8.50
2024-02-14T10:17:00.647Z,8.60
2024-02-14T10:19:32.285Z,8.60
2024-02-14T10:22:04.210Z,8.60
2024-02-14T10:24:32.917Z,8.60
2024-02-14T10:27:01.834Z,8.70
2024-02-14T10:29:30.894Z,8.70
2024-02-14T10:32:00.759Z,8.80
2024-02-14T10:34:29.994Z,8.80
2024-02-14T10:37:02.836Z,8.90
2024-02-14T10:39:33.402Z,8.80
2024-02-14T10:42:02.935Z,8.80
2024-02-14T10:44:31.758Z,8.90
2024-02-14T10:47:04.804Z,8.90
2024-02-14T10:49:33.300Z,9.00
2024-02-14T10:52:09.486Z,9.00
2024-02-14T10:54:38.025Z,9.10
2024-02-14T10:57:12.486Z,9.10
2024-02-14T10:59:48.127Z,9.20
2024-02-14T11:02:16.810Z,9.20
2024-02-14T11:04:45.957Z,9.20
2024-02-14T11:07:17.146Z,9.30
2024-02-14T11:09:47.311Z,9.30
2024-02-14T11:12:16.028Z,9.40
2024-02-14T11:14:46.555Z,9.50
2024-02-14T11:17:15.491Z,9.60
2024-02-14T11:19:46.148Z,9.70
2024-02-14T11:22:21.882Z,9.70
2024-02-14T11:24:52.405Z,9.80
2024-02-14T11:27:33.252Z,9.90
2024-02-14T11:30:05.046Z,10.00
2024-02-14T11:32:34.601Z,10.10
2024-02-14T11:35:03.341Z,10.20
2024-02-14T11:37:35.906Z,10.30
2024-02-14T11:40:05.257Z,10.20
2024-02-14T11:42:33.475Z,10.10
2024-02-14T11:45:02.174Z,10.10
2024-02-14T11:47:30.948Z,10.00
2024-02-14T11:49:59.910Z,10.00
2024-02-14T11:52:32.879Z,10.00
2024-02-14T11:55:02.527Z,9.90
2024-02-14T11:57:30.873Z,10.00
2024-02-14T12:00:03.533Z,10.10
2024-02-14T12:02:38.001Z,10.10
2024-02-14T12:05:07.296Z,10.10
2024-02-14T12:07:36.776Z,10.00
2024-02-14T12:10:11.937Z,10.00
2024-02-14T12:12:40.831Z,9.90
2024-02-14T12:15:12.213Z,9.80
2024-02-14T12:17:41.255Z,9.80
2024-02-14T12:20:12.441Z,9.80
2024-02-14T12:22:40.891Z,9.90
2024-02-14T12:25:14.042Z,10.00
2024-02-14T12:27:44.170Z,10.10
2024-02-14T12:30:14.198Z,10.30
2024-02-14T12:32:42.837Z,10.50
2024-02-14T12:35:11.365Z,10.60
2024-02-14T12:37:45.377Z,10.80
2024-02-14T12:40:15.146Z,10.80
2024-02-14T12:42:43.480Z,10.80
2024-02-14T12:45:13.650Z,10.90
2024-02-14T12:47:44.908Z,11.00
2024-02-14T12:50:13.208Z,11.10
2024-02-14T12:52:41.873Z,11.20
2024-02-14T12:55:10.647Z,11.40
2024-02-14T12:57:41.273Z,11.40
2024-02-14T13:00:11.505Z,11.40
2024-02-14T13:02:40.750Z,11.40
2024-02-14T13:05:09.575Z,11.40
2024-02-14T13:07:39.741Z,11.50
2024-02-14T13:10:10.617Z,11.60
2024-02-14T13:12:40.448Z,11.70
2024-02-14T13:15:09.500Z,11.80
2024-02-14T13:17:38.115Z,11.90
2024-02-14T13:20:07.786Z,12.00
2024-02-14T13:22:36.672Z,12.10
2024-02-14T13:25:06.315Z,12.20
2024-02-14T13:27:37.559Z,12.30
2024-02-14T13:30:09.287Z,12.40
2024-02-14T13:32:39.011Z,12.40
2024-02-14T13:35:08.326Z,12.40
2024-02-14T13:37:37.620Z,12.50
2024-02-14T13:40:11.584Z,12.40
2024-02-14T13:42:40.086Z,12.40
2024-02-14T13:45:13.896Z,12.40
2024-02-14T13:47:43.779Z,12.40
2024-02-14T13:50:13.667Z,12.40
2024-02-14T13:52:42.051Z,12.40
2024-02-14T13:55:11.188Z,12.40
2024-02-14T13:57:42.421Z,12.30
2024-02-14T14:00:13.288Z,12.20
2024-02-14T14:02:44.361Z,12.10
2024-02-14T14:05:14.794Z,12.10
2024-02-14T14:07:54.208Z,12.00
2024-02-14T14:10:28.199Z,11.90
2024-02-14T14:12:56.778Z,11.80
2024-02-14T14:15:27.943Z,11.80
2024-02-14T14:17:56.421Z,11.70
2024-02-14T14:20:25.523Z,11.60
2024-02-14T14:22:53.795Z,11.50
2024-02-14T14:25:22.026Z,11.50
2024-02-14T14:27:50.182Z,11.40
2024-02-14T14:30:18.487Z,11.30
2024-02-14T14:32:55.066Z,11.30
2024-02-14T14:35:23.451Z,11.20
2024-02-14T14:37:52.796Z,11.20
2024-02-14T14:40:22.545Z,11.10
2024-02-14T14:42:53.874Z,11.00
2024-02-14T14:45:22.408Z,11.00
2024-02-14T14:47:52.170Z,11.00
2024-02-14T14:50:20.842Z,10.90
2024-02-14T14:52:49.279Z,10.90
2024-02-14T14:55:23.207Z,10.90
2024-02-14T14:57:52.738Z,10.80
2024-02-14T15:00:22.293Z,10.80
2024-02-14T15:02:52.914Z,10.70
2024-02-14T15:05:26.952Z,10.70
2024-02-14T15:07:55.564Z,10.60
2024-02-14T15:10:24.862Z,10.60
2024-02-14T15:12:56.568Z,10.60
2024-02-14T15:15:25.817Z,10.50
2024-02-14T15:17:56.008Z,10.40
2024-02-14T15:20:24.302Z,10.40
2024-02-14T15:22:52.928Z,10.40
2024-02-14T15:25:21.685Z,10.30
2024-02-14T15:27:56.923Z,10.30
2024-02-14T15:30:43.256Z,10.30
2024-02-14T15:33:26.245Z,10.20
2024-02-14T15:36:00.188Z,10.20
2024-02-14T15:38:28.475Z,10.10
2024-02-14T15:41:02.520Z,10.10
2024-02-14T15:43:34.660Z,10.00
2024-02-14T15:46:03.925Z,10.00
2024-02-14T15:48:34.582Z,9.90
2024-02-14T15:51:04.352Z,9.90
2024-02-14T15:53:34.526Z,9.90
2024-02-14T15:56:04.227Z,9.80
2024-02-14T15:58:32.397Z,9.80
2024-02-14T16:01:00.982Z,9.80
2024-02-14T16:03:32.841Z,9.80
2024-02-14T16:06:05.917Z,9.70
2024-02-14T16:08:33.290Z,9.70
2024-02-14T16:11:01.658Z,9.70
2024-02-14T16:13:31.570Z,9.70
2024-02-14T16:16:03.181Z,9.70
2024-02-14T16:18:31.720Z,9.70
2024-02-14T16:21:00.421Z,9.60
2024-02-14T16:23:30.010Z,9.60
2024-02-14T16:25:58.190Z,9.60
2024-02-14T16:28:28.436Z,9.60
2024-02-14T16:30:58.514Z,9.60
2024-02-14T16:33:26.855Z,9.60
2024-02-14T16:35:56.390Z,9.60
2024-02-14T16:38:24.637Z,9.60
2024-02-14T16:40:56.484Z,9.60
2024-02-14T16:43:24.626Z,9.50
2024-02-14T16:45:53.598Z,9.50
2024-02-14T16:48:23.309Z,9.50
2024-02-14T16:50:51.872Z,9.50
2024-02-14T16:53:20.368Z,9.50
2024-02-14T16:55:54.446Z,9.50
2024-02-14T16:58:24.656Z,9.40
2024-02-14T17:00:53.870Z,9.40
2024-02-14T17:03:25.611Z,9.40
2024-02-14T17:05:54.951Z,9.40
2024-02-14T17:08:23.813Z,9.40
2024-02-14T17:10:53.001Z,9.40
2024-02-14T17:13:21.365Z,9.40
2024-02-14T17:15:52.030Z,9.30
2024-02-14T17:18:20.499Z,9.30
2024-02-14T17:20:50.554Z,9.30
2024-02-14T17:23:19.925Z,9.30
2024-02-14T17:25:50.910Z,9.30
2024-02-14T17:28:19.228Z,9.20
2024-02-14T17:30:49.887Z,9.30
2024-02-14T17:33:19.696Z,9.20
2024-02-14T17:35:49.070Z,9.20
2024-02-14T17:38:17.334Z,9.20
2024-02-14T17:40:45.719Z,9.20
2024-02-14T17:43:18.554Z,9.20
2024-02-14T17:45:46.696Z,9.10
2024-02-14T17:48:16.097Z,9.20
2024-02-14T17:50:46.866Z,9.10
2024-02-14T17:53:16.914Z,9.20
2024-02-14T17:55:47.917Z,9.10
2024-02-14T17:58:16.530Z,9.10
2024-02-14T18:00:45.502Z,9.10
2024-02-14T18:03:14.436Z,9.10
2024-02-14T18:05:44.866Z,9.10
2024-02-14T18:08:14.682Z,9.00
2024-02-14T18:10:44.777Z,9.10
2024-02-14T18:13:13.349Z,9.10
2024-02-14T18:15:41.952Z,9.10
2024-02-14T18:18:11.542Z,9.00
2024-02-14T18:20:40.561Z,9.10
2024-02-14T18:23:08.966Z,9.00
2024-02-14T18:25:39.218Z,9.00
2024-02-14T18:28:07.716Z,9.00
2024-02-14T18:30:36.965Z,9.00
2024-02-14T18:33:05.874Z,9.00
2024-02-14T18:35:38.475Z,9.00
2024-02-14T18:38:09.831Z,9.00
2024-02-14T18:40:41.042Z,9.00
2024-02-14T18:43:09.386Z,9.00
2024-02-14T18:45:37.595Z,8.90
2024-02-14T18:48:09.328Z,8.90
2024-02-14T18:50:37.728Z,8.90
2024-02-14T18:53:06.200Z,8.90
2024-02-14T18:55:34.550Z,8.90
2024-02-14T18:58:04.373Z,8.90
2024-02-14T19:00:34.307Z,8.90
2024-02-14T19:03:03.794Z,8.90
2024-02-14T19:05:32.691Z,8.90
2024-02-14T19:08:01.070Z,8.90
2024-02-14T19:10:29.414Z,8.90
2024-02-14T19:13:02.426Z,8.80
2024-02-14T19:15:32.407Z,8.80
2024-02-14T19:18:00.928Z,8.80
2024-02-14T19:20:31.722Z,8.90
2024-02-14T19:23:00.408Z,8.80
2024-02-14T19:25:28.664Z,8.80
2024-02-14T19:27:57.321Z,8.80
2024-02-14T19:30:25.483Z,8.80
2024-02-14T19:32:55.238Z,8.80
2024-02-14T19:35:23.898Z,8.80
2024-02-14T19:37:52.126Z,8.80
2024-02-14T19:40:20.745Z,8.70
2024-02-14T19:42:48.894Z,8.70
2024-02-14T19:45:18.698Z,8.70
2024-02-14T19:47:50.463Z,8.70
2024-02-14T19:50:21.371Z,8.70
2024-02-14T19:52:49.722Z,8.70
2024-02-14T19:55:20.195Z,8.70
2024-02-14T19:57:49.086Z,8.70
2024-02-14T20:00:19.927Z,8.70
2024-02-14T20:02:54.557Z,8.70
2024-02-14T20:05:24.432Z,8.70
2024-02-14T20:07:53.026Z,8.70
2024-02-14T20:10:21.475Z,8.70
2024-02-14T20:12:51.594Z,8.70
2024-02-14T20:15:22.472Z,8.70
2024-02-14T20:17:52.524Z,8.70
2024-02-14T20:20:21.254Z,8.70
2024-02-14T20:22:51.378Z,8.60
2024-02-14T20:25:23.436Z,8.60
2024-02-14T20:27:51.758Z,8.60
2024-02-14T20:30:22.138Z,8.60
2024-02-14T20:32:51.349Z,8.60
2024-02-14T20:35:23.752Z,8.60
2024-02-14T20:38:00.761Z,8.60
2024-02-14T20:40:32.709Z,8.60
2024-02-14T20:43:01.405Z,8.60
2024-02-14T20:45:30.308Z,8.60
2024-02-14T20:47:59.668Z,8.60
2024-02-14T20:50:28.356Z,8.60
2024-02-14T20:52:59.013Z,8.60
2024-02-14T20:55:27.174Z,8.60
2024-02-14T20:57:55.645Z,8.60
2024-02-14T21:00:25.111Z,8.60
2024-02-14T21:02:53.616Z,8.60
2024-02-14T21:05:21.954Z,8.60
2024-02-14T21:07:53.588Z,8.60
2024-02-14T21:10:24.161Z,8.60
2024-02-14T21:12:53.000Z,8.60
2024-02-14T21:15:22.021Z,8.60
2024-02-14T21:17:50.580Z,8.50
2024-02-14T21:20:21.550Z,8.60
2024-02-14T21:22:51.020Z,8.50
2024-02-14T21:25:19.204Z,8.50
2024-02-14T21:27:50.071Z,8.50
2024-02-14T21:30:18.562Z,8.50
2024-02-14T21:32:49.572Z,8.50
2024-02-14T21:35:17.922Z,8.50
2024-02-14T21:37:47.906Z,8.50
2024-02-14T21:40:17.405Z,8.50
2024-02-14T21:42:46.071Z,8.50
2024-02-14T21:45:16.795Z,8.50
2024-02-14T21:47:46.525Z,8.50
2024-02-14T21:50:15.110Z,8.40
2024-02-14T21:52:43.511Z,8.50
2024-02-14T21:55:13.111Z,8.40
2024-02-14T21:57:45.690Z,8.40
2024-02-14T22:00:17.111Z,8.40
2024-02-14T22:02:46.602Z,8.40
2024-02-14T22:05:14.931Z,8.40
2024-02-14T22:07:45.018Z,8.40
2024-02-14T22:10:13.582Z,8.40
2024-02-14T22:12:44.114Z,8.40
2024-02-14T22:15:13.123Z,8.40
2024-02-14T22:17:43.541Z,8.30
2024-02-14T22:20:13.853Z,8.30
2024-02-14T22:22:43.057Z,8.30
2024-02-14T22:25:14.099Z,8.30
2024-02-14T22:27:42.442Z,8.30
2024-02-14T22:30:12.220Z,8.30
2024-02-14T22:32:41.995Z,8.30
2024-02-14T22:35:11.040Z,8.30
2024-02-14T22:37:40.084Z,8.30
2024-02-14T22:40:09.478Z,8.30
2024-02-14T22:42:39.036Z,8.30
2024-02-14T22:45:07.917Z,8.30
2024-02-14T22:47:38.074Z,8.30
2024-02-14T22:50:10.130Z,8.20
2024-02-14T22:52:39.178Z,8.20
2024-02-14T22:55:10.997Z,8.20
2024-02-14T22:57:44.100Z,8.20
2024-02-14T23:00:15.567Z,8.20
2024-02-14T23:02:44.719Z,8.20
2024-02-14T23:05:17.114Z,8.20
2024-02-14T23:07:45.419Z,8.20
2024-02-14T23:10:14.077Z,8.20
2024-02-14T23:12:42.169Z,8.10
2024-02-14T23:15:10.674Z,8.10
2024-02-14T23:17:41.470Z,8.10
2024-02-14T23:20:13.322Z,8.20
2024-02-14T23:22:44.459Z,8.10
2024-02-14T23:25:12.741Z,8.10
2024-02-14T23:27:44.187Z,8.10
2024-02-14T23:30:14.927Z,8.10
2024-02-14T23:32:44.539Z,8.10
2024-02-14T23:35:13.816Z,8.10
2024-02-14T23:37:45.929Z,8.10
2024-02-14T23:40:15.070Z,8.10
2024-02-14T23:42:44.213Z,8.10
2024-02-14T23:45:14.202Z,8.10
2024-02-14T23:47:43.431Z,8.10
2024-02-14T23:50:17.153Z,8.10
2024-02-14T23:52:47.484Z,8.10
2024-02-14T23:55:18.145Z,8.10
2024-02-14T23:57:46.329Z,8.10
